sensor_id;sensor_type;location;lat;lon;timestamp;P1;durP1;ratioP1;P2;durP2;ratioP2
70071;SDS011;57434;42.794;23.302;2024-01-15T00:00:28;94.03;;;38.72;;
70071;SDS011;57434;42.794;23.302;2024-01-15T00:01:29;61.92;;;25.27;;
70071;SDS011;57434;42.794;23.302;2024-01-15T00:02:31;62.28;;;27.35;;
70071;SDS011;57434;42.794;23.302;2024-01-15T00:03:33;77.72;;;28.60;;
70071;SDS011;57434;42.794;23.302;2024-01-15T00:04:38;59.45;;;25.60;;
70071;SDS011;57434;42.794;23.302;2024-01-15T00:05:39;67.95;;;28.50;;
70071;SDS011;57434;42.794;23.302;2024-01-15T00:06:41;59.20;;;27.67;;
70071;SDS011;57434;42.794;23.302;2024-01-15T00:07:43;58.30;;;27.35;;
70071;SDS011;57434;42.794;23.302;2024-01-15T00:08:44;77.75;;;30.70;;
70071;SDS011;57434;42.794;23.302;2024-01-15T00:09:46;77.10;;;31.83;;
70071;SDS011;57434;42.794;23.302;2024-01-15T00:10:47;71.53;;;29.95;;
70071;SDS011;57434;42.794;23.302;2024-01-15T00:11:49;69.90;;;28.90;;
70071;SDS011;57434;42.794;23.302;2024-01-15T00:12:51;72.80;;;31.50;;
70071;SDS011;57434;42.794;23.302;2024-01-15T00:13:52;83.55;;;31.02;;
70071;SDS011;57434;42.794;23.302;2024-01-15T00:14:54;72.20;;;28.58;;
70071;SDS011;57434;42.794;23.302;2024-01-15T00:15:56;65.60;;;29.13;;
70071;SDS011;57434;42.794;23.302;2024-01-15T00:16:57;62.63;;;27.00;;
70071;SDS011;57434;42.794;23.302;2024-01-15T00:17:59;61.53;;;27.42;;
70071;SDS011;57434;42.794;23.302;2024-01-15T00:19:01;68.35;;;29.80;;
70071;SDS011;57434;42.794;23.302;2024-01-15T00:20:03;68.55;;;30.15;;
70071;SDS011;57434;42.794;23.302;2024-01-15T00:21:05;63.35;;;28.40;;
70071;SDS011;57434;42.794;23.302;2024-01-15T00:22:07;69.85;;;29.65;;
70071;SDS011;57434;42.794;23.302;2024-01-15T00:23:08;58.90;;;28.33;;
70071;SDS011;57434;42.794;23.302;2024-01-15T00:24:10;64.18;;;26.15;;
70071;SDS011;57434;42.794;23.302;2024-01-15T00:25:12;62.92;;;26.15;;
70071;SDS011;57434;42.794;23.302;2024-01-15T00:26:13;62.50;;;24.75;;
70071;SDS011;57434;42.794;23.302;2024-01-15T00:27:15;57.60;;;25.43;;
70071;SDS011;57434;42.794;23.302;2024-01-15T00:28:16;66.10;;;26.15;;
70071;SDS011;57434;42.794;23.302;2024-01-15T00:29:18;62.35;;;23.50;;
70071;SDS011;57434;42.794;23.302;2024-01-15T00:30:20;57.58;;;25.83;;
70071;SDS011;57434;42.794;23.302;2024-01-15T00:31:21;54.75;;;25.10;;
70071;SDS011;57434;42.794;23.302;2024-01-15T00:32:23;65.50;;;27.75;;
70071;SDS011;57434;42.794;23.302;2024-01-15T00:33:25;67.05;;;27.17;;
70071;SDS011;57434;42.794;23.302;2024-01-15T00:34:27;60.50;;;25.45;;
70071;SDS011;57434;42.794;23.302;2024-01-15T00:35:29;53.50;;;25.52;;
70071;SDS011;57434;42.794;23.302;2024-01-15T00:36:30;53.97;;;22.73;;
70071;SDS011;57434;42.794;23.302;2024-01-15T00:37:32;54.93;;;23.73;;
70071;SDS011;57434;42.794;23.302;2024-01-15T00:38:34;53.67;;;22.17;;
70071;SDS011;57434;42.794;23.302;2024-01-15T00:39:35;56.30;;;23.40;;
70071;SDS011;57434;42.794;23.302;2024-01-15T00:40:37;62.00;;;23.92;;
70071;SDS011;57434;42.794;23.302;2024-01-15T00:41:39;48.50;;;21.90;;
70071;SDS011;57434;42.794;23.302;2024-01-15T00:42:40;45.25;;;19.58;;
70071;SDS011;57434;42.794;23.302;2024-01-15T00:43:42;41.75;;;18.85;;
70071;SDS011;57434;42.794;23.302;2024-01-15T00:44:43;54.28;;;22.73;;
70071;SDS011;57434;42.794;23.302;2024-01-15T00:45:45;54.88;;;22.55;;
70071;SDS011;57434;42.794;23.302;2024-01-15T00:46:46;49.28;;;20.02;;
70071;SDS011;57434;42.794;23.302;2024-01-15T00:47:48;40.03;;;16.13;;
70071;SDS011;57434;42.794;23.302;2024-01-15T00:48:50;44.10;;;18.60;;
70071;SDS011;57434;42.794;23.302;2024-01-15T00:49:51;45.55;;;18.55;;
70071;SDS011;57434;42.794;23.302;2024-01-15T00:50:53;38.50;;;18.42;;
70071;SDS011;57434;42.794;23.302;2024-01-15T00:51:54;43.53;;;18.98;;
70071;SDS011;57434;42.794;23.302;2024-01-15T00:52:56;43.97;;;18.38;;
70071;SDS011;57434;42.794;23.302;2024-01-15T00:53:58;31.52;;;14.60;;
70071;SDS011;57434;42.794;23.302;2024-01-15T00:54:59;35.63;;;15.50;;
70071;SDS011;57434;42.794;23.302;2024-01-15T00:56:01;28.88;;;13.27;;
70071;SDS011;57434;42.794;23.302;2024-01-15T00:57:03;27.55;;;12.93;;
70071;SDS011;57434;42.794;23.302;2024-01-15T00:58:04;31.50;;;12.97;;
70071;SDS011;57434;42.794;23.302;2024-01-15T00:59:06;33.85;;;13.68;;
70071;SDS011;57434;42.794;23.302;2024-01-15T01:00:07;33.30;;;14.60;;
70071;SDS011;57434;42.794;23.302;2024-01-15T01:01:09;33.42;;;13.63;;
70071;SDS011;57434;42.794;23.302;2024-01-15T01:02:11;30.92;;;13.88;;
70071;SDS011;57434;42.794;23.302;2024-01-15T01:03:13;34.13;;;13.65;;
70071;SDS011;57434;42.794;23.302;2024-01-15T01:04:14;28.02;;;12.02;;
70071;SDS011;57434;42.794;23.302;2024-01-15T01:05:16;33.90;;;13.00;;
70071;SDS011;57434;42.794;23.302;2024-01-15T01:06:18;31.02;;;13.50;;
70071;SDS011;57434;42.794;23.302;2024-01-15T01:07:19;27.58;;;11.38;;
70071;SDS011;57434;42.794;23.302;2024-01-15T01:08:21;30.53;;;12.73;;
70071;SDS011;57434;42.794;23.302;2024-01-15T01:09:23;27.98;;;12.30;;
70071;SDS011;57434;42.794;23.302;2024-01-15T01:10:24;31.73;;;13.65;;
70071;SDS011;57434;42.794;23.302;2024-01-15T01:11:26;25.27;;;11.88;;
70071;SDS011;57434;42.794;23.302;2024-01-15T01:12:27;36.42;;;13.82;;
70071;SDS011;57434;42.794;23.302;2024-01-15T01:13:29;33.72;;;13.52;;
70071;SDS011;57434;42.794;23.302;2024-01-15T01:14:31;35.63;;;12.73;;
70071;SDS011;57434;42.794;23.302;2024-01-15T01:15:33;35.05;;;13.57;;
70071;SDS011;57434;42.794;23.302;2024-01-15T01:16:34;29.63;;;15.20;;
70071;SDS011;57434;42.794;23.302;2024-01-15T01:17:36;37.83;;;15.20;;
70071;SDS011;57434;42.794;23.302;2024-01-15T01:18:38;36.83;;;16.97;;
70071;SDS011;57434;42.794;23.302;2024-01-15T01:19:40;35.88;;;14.68;;
70071;SDS011;57434;42.794;23.302;2024-01-15T01:20:41;33.17;;;15.40;;
70071;SDS011;57434;42.794;23.302;2024-01-15T01:21:43;31.05;;;15.95;;
70071;SDS011;57434;42.794;23.302;2024-01-15T01:22:45;44.63;;;16.10;;
70071;SDS011;57434;42.794;23.302;2024-01-15T01:23:46;40.25;;;16.75;;
70071;SDS011;57434;42.794;23.302;2024-01-15T01:24:48;40.85;;;16.75;;
70071;SDS011;57434;42.794;23.302;2024-01-15T01:25:49;39.80;;;16.50;;
70071;SDS011;57434;42.794;23.302;2024-01-15T01:26:51;43.30;;;16.90;;
70071;SDS011;57434;42.794;23.302;2024-01-15T01:27:52;41.33;;;18.20;;
70071;SDS011;57434;42.794;23.302;2024-01-15T01:28:54;41.77;;;17.37;;
70071;SDS011;57434;42.794;23.302;2024-01-15T01:29:55;44.35;;;17.77;;
70071;SDS011;57434;42.794;23.302;2024-01-15T01:30:57;55.75;;;23.73;;
70071;SDS011;57434;42.794;23.302;2024-01-15T01:31:59;64.88;;;25.45;;
70071;SDS011;57434;42.794;23.302;2024-01-15T01:33:00;57.58;;;26.65;;
70071;SDS011;57434;42.794;23.302;2024-01-15T01:34:02;60.40;;;25.48;;
70071;SDS011;57434;42.794;23.302;2024-01-15T01:35:03;62.33;;;27.15;;
70071;SDS011;57434;42.794;23.302;2024-01-15T01:36:09;71.40;;;25.63;;
70071;SDS011;57434;42.794;23.302;2024-01-15T01:37:10;75.60;;;29.90;;
70071;SDS011;57434;42.794;23.302;2024-01-15T01:38:12;63.60;;;27.88;;
70071;SDS011;57434;42.794;23.302;2024-01-15T01:39:14;71.97;;;28.60;;
70071;SDS011;57434;42.794;23.302;2024-01-15T01:40:15;73.88;;;28.38;;
70071;SDS011;57434;42.794;23.302;2024-01-15T01:41:17;72.60;;;29.52;;
70071;SDS011;57434;42.794;23.302;2024-01-15T01:42:18;81.07;;;35.53;;
70071;SDS011;57434;42.794;23.302;2024-01-15T01:43:20;88.45;;;28.35;;
70071;SDS011;57434;42.794;23.302;2024-01-15T01:44:21;91.30;;;37.85;;
70071;SDS011;57434;42.794;23.302;2024-01-15T01:45:23;87.05;;;35.80;;
70071;SDS011;57434;42.794;23.302;2024-01-15T01:46:25;74.70;;;35.55;;
70071;SDS011;57434;42.794;23.302;2024-01-15T01:47:28;70.30;;;30.83;;
70071;SDS011;57434;42.794;23.302;2024-01-15T01:48:30;75.97;;;34.50;;
70071;SDS011;57434;42.794;23.302;2024-01-15T01:49:33;67.37;;;31.23;;
70071;SDS011;57434;42.794;23.302;2024-01-15T01:50:34;73.85;;;30.48;;
70071;SDS011;57434;42.794;23.302;2024-01-15T01:51:36;75.30;;;28.40;;
70071;SDS011;57434;42.794;23.302;2024-01-15T01:52:39;67.50;;;27.20;;
70071;SDS011;57434;42.794;23.302;2024-01-15T01:53:41;84.25;;;32.45;;
70071;SDS011;57434;42.794;23.302;2024-01-15T01:54:42;97.95;;;37.85;;
70071;SDS011;57434;42.794;23.302;2024-01-15T01:55:44;83.93;;;33.28;;
70071;SDS011;57434;42.794;23.302;2024-01-15T01:56:47;65.05;;;28.92;;
70071;SDS011;57434;42.794;23.302;2024-01-15T01:57:50;62.30;;;28.02;;
70071;SDS011;57434;42.794;23.302;2024-01-15T01:58:51;68.70;;;26.67;;
70071;SDS011;57434;42.794;23.302;2024-01-15T01:59:53;66.50;;;28.20;;
70071;SDS011;57434;42.794;23.302;2024-01-15T02:00:55;66.20;;;26.50;;
70071;SDS011;57434;42.794;23.302;2024-01-15T02:01:57;65.85;;;28.38;;
70071;SDS011;57434;42.794;23.302;2024-01-15T02:02:58;59.33;;;26.48;;
70071;SDS011;57434;42.794;23.302;2024-01-15T02:04:00;69.82;;;26.70;;
70071;SDS011;57434;42.794;23.302;2024-01-15T02:05:03;83.43;;;33.92;;
70071;SDS011;57434;42.794;23.302;2024-01-15T02:06:05;90.85;;;36.78;;
70071;SDS011;57434;42.794;23.302;2024-01-15T02:07:07;74.35;;;30.83;;
70071;SDS011;57434;42.794;23.302;2024-01-15T02:08:08;74.30;;;31.45;;
70071;SDS011;57434;42.794;23.302;2024-01-15T02:09:10;56.33;;;26.77;;
70071;SDS011;57434;42.794;23.302;2024-01-15T02:11:42;51.75;;;21.55;;
70071;SDS011;57434;42.794;23.302;2024-01-15T02:12:43;48.33;;;20.90;;
70071;SDS011;57434;42.794;23.302;2024-01-15T02:13:45;49.28;;;20.60;;
70071;SDS011;57434;42.794;23.302;2024-01-15T02:14:47;44.25;;;20.48;;
70071;SDS011;57434;42.794;23.302;2024-01-15T02:15:49;55.05;;;20.88;;
70071;SDS011;57434;42.794;23.302;2024-01-15T02:16:50;50.45;;;22.63;;
70071;SDS011;57434;42.794;23.302;2024-01-15T02:18:03;52.92;;;23.55;;
70071;SDS011;57434;42.794;23.302;2024-01-15T02:19:06;49.22;;;21.90;;
70071;SDS011;57434;42.794;23.302;2024-01-15T02:20:07;44.65;;;22.10;;
70071;SDS011;57434;42.794;23.302;2024-01-15T02:21:09;53.43;;;22.93;;
70071;SDS011;57434;42.794;23.302;2024-01-15T02:22:11;57.83;;;23.70;;
70071;SDS011;57434;42.794;23.302;2024-01-15T02:23:13;50.53;;;23.20;;
70071;SDS011;57434;42.794;23.302;2024-01-15T02:24:15;60.40;;;25.35;;
70071;SDS011;57434;42.794;23.302;2024-01-15T02:25:16;55.83;;;23.42;;
70071;SDS011;57434;42.794;23.302;2024-01-15T02:26:18;59.10;;;23.55;;
70071;SDS011;57434;42.794;23.302;2024-01-15T02:27:20;59.63;;;22.88;;
70071;SDS011;57434;42.794;23.302;2024-01-15T02:28:21;55.25;;;25.33;;
70071;SDS011;57434;42.794;23.302;2024-01-15T02:29:23;55.53;;;25.98;;
70071;SDS011;57434;42.794;23.302;2024-01-15T02:30:25;51.95;;;24.70;;
70071;SDS011;57434;42.794;23.302;2024-01-15T02:31:27;67.40;;;26.27;;
70071;SDS011;57434;42.794;23.302;2024-01-15T02:32:29;61.42;;;25.35;;
70071;SDS011;57434;42.794;23.302;2024-01-15T02:33:30;62.42;;;25.00;;
70071;SDS011;57434;42.794;23.302;2024-01-15T02:34:32;52.15;;;23.05;;
70071;SDS011;57434;42.794;23.302;2024-01-15T02:35:34;56.05;;;25.27;;
70071;SDS011;57434;42.794;23.302;2024-01-15T02:36:36;57.78;;;27.05;;
70071;SDS011;57434;42.794;23.302;2024-01-15T02:37:37;63.50;;;28.02;;
70071;SDS011;57434;42.794;23.302;2024-01-15T02:38:39;67.97;;;30.60;;
70071;SDS011;57434;42.794;23.302;2024-01-15T02:39:40;72.10;;;30.23;;
70071;SDS011;57434;42.794;23.302;2024-01-15T02:40:43;80.72;;;32.78;;
70071;SDS011;57434;42.794;23.302;2024-01-15T02:41:45;81.03;;;34.77;;
70071;SDS011;57434;42.794;23.302;2024-01-15T02:42:46;84.07;;;33.38;;
70071;SDS011;57434;42.794;23.302;2024-01-15T02:43:48;81.63;;;38.50;;
70071;SDS011;57434;42.794;23.302;2024-01-15T02:44:49;83.63;;;38.05;;
70071;SDS011;57434;42.794;23.302;2024-01-15T02:45:51;91.03;;;37.45;;
70071;SDS011;57434;42.794;23.302;2024-01-15T02:46:53;79.75;;;35.72;;
70071;SDS011;57434;42.794;23.302;2024-01-15T02:47:55;86.40;;;37.45;;
70071;SDS011;57434;42.794;23.302;2024-01-15T02:48:56;84.40;;;37.83;;
70071;SDS011;57434;42.794;23.302;2024-01-15T02:49:58;79.75;;;36.40;;
70071;SDS011;57434;42.794;23.302;2024-01-15T02:51:00;90.03;;;38.03;;
70071;SDS011;57434;42.794;23.302;2024-01-15T02:52:02;96.80;;;36.93;;
70071;SDS011;57434;42.794;23.302;2024-01-15T02:53:04;95.20;;;40.05;;
70071;SDS011;57434;42.794;23.302;2024-01-15T02:54:06;87.10;;;35.97;;
70071;SDS011;57434;42.794;23.302;2024-01-15T02:55:07;79.47;;;38.83;;
70071;SDS011;57434;42.794;23.302;2024-01-15T02:56:09;86.10;;;38.55;;
70071;SDS011;57434;42.794;23.302;2024-01-15T02:57:11;86.95;;;37.22;;
70071;SDS011;57434;42.794;23.302;2024-01-15T02:58:12;93.30;;;38.17;;
70071;SDS011;57434;42.794;23.302;2024-01-15T02:59:14;87.38;;;36.95;;
70071;SDS011;57434;42.794;23.302;2024-01-15T03:03:21;77.33;;;34.80;;
70071;SDS011;57434;42.794;23.302;2024-01-15T03:04:24;89.70;;;39.13;;
70071;SDS011;57434;42.794;23.302;2024-01-15T03:05:26;80.53;;;39.05;;
70071;SDS011;57434;42.794;23.302;2024-01-15T03:06:28;82.68;;;37.38;;
70071;SDS011;57434;42.794;23.302;2024-01-15T03:07:29;86.05;;;37.45;;
70071;SDS011;57434;42.794;23.302;2024-01-15T03:08:31;85.88;;;38.58;;
70071;SDS011;57434;42.794;23.302;2024-01-15T03:09:33;85.55;;;37.72;;
70071;SDS011;57434;42.794;23.302;2024-01-15T03:10:34;87.18;;;38.67;;
70071;SDS011;57434;42.794;23.302;2024-01-15T03:11:36;92.85;;;39.03;;
70071;SDS011;57434;42.794;23.302;2024-01-15T03:12:38;94.63;;;36.67;;
70071;SDS011;57434;42.794;23.302;2024-01-15T03:13:40;98.63;;;41.50;;
70071;SDS011;57434;42.794;23.302;2024-01-15T03:14:41;89.38;;;37.85;;
70071;SDS011;57434;42.794;23.302;2024-01-15T03:15:43;78.60;;;34.65;;
70071;SDS011;57434;42.794;23.302;2024-01-15T03:16:45;70.97;;;33.72;;
70071;SDS011;57434;42.794;23.302;2024-01-15T03:17:46;75.50;;;31.38;;
70071;SDS011;57434;42.794;23.302;2024-01-15T03:18:48;76.20;;;30.33;;
70071;SDS011;57434;42.794;23.302;2024-01-15T03:19:50;75.75;;;34.05;;
70071;SDS011;57434;42.794;23.302;2024-01-15T03:20:51;71.50;;;31.95;;
70071;SDS011;57434;42.794;23.302;2024-01-15T03:21:53;71.55;;;30.83;;
70071;SDS011;57434;42.794;23.302;2024-01-15T03:22:55;66.15;;;27.48;;
70071;SDS011;57434;42.794;23.302;2024-01-15T03:23:56;69.03;;;28.73;;
70071;SDS011;57434;42.794;23.302;2024-01-15T03:24:58;73.97;;;30.33;;
70071;SDS011;57434;42.794;23.302;2024-01-15T03:26:00;78.32;;;31.77;;
70071;SDS011;57434;42.794;23.302;2024-01-15T03:27:02;79.72;;;32.85;;
70071;SDS011;57434;42.794;23.302;2024-01-15T03:28:04;71.25;;;29.17;;
70071;SDS011;57434;42.794;23.302;2024-01-15T03:29:05;62.47;;;26.98;;
70071;SDS011;57434;42.794;23.302;2024-01-15T03:30:07;66.28;;;29.13;;
70071;SDS011;57434;42.794;23.302;2024-01-15T03:31:09;85.07;;;36.38;;
70071;SDS011;57434;42.794;23.302;2024-01-15T03:32:11;79.28;;;34.67;;
70071;SDS011;57434;42.794;23.302;2024-01-15T03:33:12;79.97;;;33.08;;
70071;SDS011;57434;42.794;23.302;2024-01-15T03:34:14;82.27;;;33.37;;
70071;SDS011;57434;42.794;23.302;2024-01-15T03:35:16;76.68;;;33.08;;
70071;SDS011;57434;42.794;23.302;2024-01-15T03:36:17;83.95;;;34.22;;
70071;SDS011;57434;42.794;23.302;2024-01-15T03:37:19;78.95;;;33.67;;
70071;SDS011;57434;42.794;23.302;2024-01-15T03:38:22;108.10;;;41.22;;
70071;SDS011;57434;42.794;23.302;2024-01-15T03:39:24;96.22;;;40.78;;
70071;SDS011;57434;42.794;23.302;2024-01-15T03:40:25;95.18;;;40.38;;
70071;SDS011;57434;42.794;23.302;2024-01-15T03:41:27;95.53;;;38.67;;
70071;SDS011;57434;42.794;23.302;2024-01-15T03:42:28;86.45;;;37.42;;
70071;SDS011;57434;42.794;23.302;2024-01-15T03:43:30;98.97;;;42.17;;
70071;SDS011;57434;42.794;23.302;2024-01-15T03:44:32;99.80;;;41.67;;
70071;SDS011;57434;42.794;23.302;2024-01-15T03:45:33;98.82;;;39.63;;
70071;SDS011;57434;42.794;23.302;2024-01-15T03:46:35;89.15;;;39.22;;
70071;SDS011;57434;42.794;23.302;2024-01-15T03:47:37;108.90;;;40.17;;
70071;SDS011;57434;42.794;23.302;2024-01-15T03:48:39;102.97;;;43.33;;
70071;SDS011;57434;42.794;23.302;2024-01-15T03:49:41;94.03;;;42.70;;
70071;SDS011;57434;42.794;23.302;2024-01-15T03:50:43;103.18;;;44.08;;
70071;SDS011;57434;42.794;23.302;2024-01-15T03:51:44;101.97;;;44.60;;
70071;SDS011;57434;42.794;23.302;2024-01-15T03:52:46;89.60;;;38.15;;
70071;SDS011;57434;42.794;23.302;2024-01-15T03:53:48;83.65;;;35.25;;
70071;SDS011;57434;42.794;23.302;2024-01-15T03:54:50;82.40;;;32.57;;
70071;SDS011;57434;42.794;23.302;2024-01-15T03:55:52;79.03;;;35.88;;
70071;SDS011;57434;42.794;23.302;2024-01-15T03:56:53;86.85;;;37.88;;
70071;SDS011;57434;42.794;23.302;2024-01-15T03:57:55;96.45;;;42.00;;
70071;SDS011;57434;42.794;23.302;2024-01-15T03:58:56;88.85;;;37.83;;
70071;SDS011;57434;42.794;23.302;2024-01-15T03:59:58;107.10;;;44.53;;
70071;SDS011;57434;42.794;23.302;2024-01-15T04:01:00;104.07;;;42.97;;
70071;SDS011;57434;42.794;23.302;2024-01-15T04:02:01;100.63;;;42.42;;
70071;SDS011;57434;42.794;23.302;2024-01-15T04:03:03;98.68;;;44.55;;
70071;SDS011;57434;42.794;23.302;2024-01-15T04:04:05;108.95;;;47.70;;
70071;SDS011;57434;42.794;23.302;2024-01-15T04:05:06;108.90;;;46.37;;
70071;SDS011;57434;42.794;23.302;2024-01-15T04:06:08;115.75;;;40.85;;
70071;SDS011;57434;42.794;23.302;2024-01-15T04:07:10;95.28;;;43.35;;
70071;SDS011;57434;42.794;23.302;2024-01-15T04:08:12;93.30;;;42.13;;
70071;SDS011;57434;42.794;23.302;2024-01-15T04:09:13;83.80;;;37.78;;
70071;SDS011;57434;42.794;23.302;2024-01-15T04:10:15;101.47;;;39.53;;
70071;SDS011;57434;42.794;23.302;2024-01-15T04:11:17;79.88;;;38.03;;
70071;SDS011;57434;42.794;23.302;2024-01-15T04:12:18;88.35;;;37.38;;
70071;SDS011;57434;42.794;23.302;2024-01-15T04:13:20;92.57;;;39.55;;
70071;SDS011;57434;42.794;23.302;2024-01-15T04:14:22;77.10;;;36.38;;
70071;SDS011;57434;42.794;23.302;2024-01-15T04:15:24;83.87;;;38.83;;
70071;SDS011;57434;42.794;23.302;2024-01-15T04:16:25;82.10;;;37.30;;
70071;SDS011;57434;42.794;23.302;2024-01-15T04:17:27;85.35;;;36.47;;
70071;SDS011;57434;42.794;23.302;2024-01-15T04:18:29;94.32;;;42.28;;
70071;SDS011;57434;42.794;23.302;2024-01-15T04:19:30;102.40;;;40.78;;
70071;SDS011;57434;42.794;23.302;2024-01-15T04:20:32;82.82;;;35.65;;
70071;SDS011;57434;42.794;23.302;2024-01-15T04:21:33;102.43;;;42.22;;
70071;SDS011;57434;42.794;23.302;2024-01-15T04:22:35;117.18;;;47.65;;
70071;SDS011;57434;42.794;23.302;2024-01-15T04:23:37;97.95;;;43.30;;
70071;SDS011;57434;42.794;23.302;2024-01-15T04:24:38;86.90;;;39.35;;
70071;SDS011;57434;42.794;23.302;2024-01-15T04:25:40;95.03;;;38.43;;
70071;SDS011;57434;42.794;23.302;2024-01-15T04:26:41;78.57;;;33.25;;
70071;SDS011;57434;42.794;23.302;2024-01-15T04:27:43;72.68;;;30.98;;
70071;SDS011;57434;42.794;23.302;2024-01-15T04:28:45;69.63;;;28.48;;
70071;SDS011;57434;42.794;23.302;2024-01-15T04:29:46;61.88;;;27.63;;
70071;SDS011;57434;42.794;23.302;2024-01-15T04:30:48;67.72;;;30.40;;
70071;SDS011;57434;42.794;23.302;2024-01-15T04:31:50;76.45;;;35.03;;
70071;SDS011;57434;42.794;23.302;2024-01-15T04:32:51;72.13;;;31.13;;
70071;SDS011;57434;42.794;23.302;2024-01-15T04:33:53;72.90;;;35.08;;
70071;SDS011;57434;42.794;23.302;2024-01-15T04:34:55;77.18;;;32.17;;
70071;SDS011;57434;42.794;23.302;2024-01-15T04:35:57;72.87;;;33.67;;
70071;SDS011;57434;42.794;23.302;2024-01-15T04:37:02;71.18;;;32.70;;
70071;SDS011;57434;42.794;23.302;2024-01-15T04:38:04;70.68;;;29.70;;
70071;SDS011;57434;42.794;23.302;2024-01-15T04:39:05;59.45;;;29.05;;
70071;SDS011;57434;42.794;23.302;2024-01-15T04:40:07;64.13;;;27.15;;
70071;SDS011;57434;42.794;23.302;2024-01-15T04:41:10;62.22;;;28.60;;
70071;SDS011;57434;42.794;23.302;2024-01-15T04:42:12;55.58;;;29.23;;
70071;SDS011;57434;42.794;23.302;2024-01-15T04:43:14;59.22;;;28.90;;
70071;SDS011;57434;42.794;23.302;2024-01-15T04:44:15;67.57;;;30.45;;
70071;SDS011;57434;42.794;23.302;2024-01-15T04:45:17;66.60;;;28.77;;
70071;SDS011;57434;42.794;23.302;2024-01-15T04:46:18;73.83;;;31.07;;
70071;SDS011;57434;42.794;23.302;2024-01-15T04:47:20;72.30;;;29.23;;
70071;SDS011;57434;42.794;23.302;2024-01-15T04:48:22;62.85;;;28.88;;
70071;SDS011;57434;42.794;23.302;2024-01-15T04:49:23;75.82;;;31.77;;
70071;SDS011;57434;42.794;23.302;2024-01-15T04:50:25;69.10;;;30.05;;
70071;SDS011;57434;42.794;23.302;2024-01-15T04:51:27;61.00;;;28.75;;
70071;SDS011;57434;42.794;23.302;2024-01-15T04:52:28;65.68;;;29.38;;
70071;SDS011;57434;42.794;23.302;2024-01-15T04:53:30;68.05;;;28.67;;
70071;SDS011;57434;42.794;23.302;2024-01-15T04:54:31;74.45;;;31.95;;
70071;SDS011;57434;42.794;23.302;2024-01-15T04:55:33;66.75;;;31.35;;
70071;SDS011;57434;42.794;23.302;2024-01-15T04:56:35;61.43;;;29.97;;
70071;SDS011;57434;42.794;23.302;2024-01-15T04:57:36;70.50;;;30.15;;
70071;SDS011;57434;42.794;23.302;2024-01-15T04:58:38;65.05;;;26.83;;
70071;SDS011;57434;42.794;23.302;2024-01-15T04:59:40;65.75;;;29.98;;
70071;SDS011;57434;42.794;23.302;2024-01-15T05:00:42;76.53;;;31.50;;
70071;SDS011;57434;42.794;23.302;2024-01-15T05:01:44;64.90;;;31.10;;
70071;SDS011;57434;42.794;23.302;2024-01-15T05:02:45;77.97;;;33.47;;
70071;SDS011;57434;42.794;23.302;2024-01-15T05:03:47;112.63;;;45.13;;
70071;SDS011;57434;42.794;23.302;2024-01-15T05:04:49;82.10;;;38.53;;
70071;SDS011;57434;42.794;23.302;2024-01-15T05:05:51;96.35;;;38.15;;
70071;SDS011;57434;42.794;23.302;2024-01-15T05:06:53;85.67;;;37.80;;
70071;SDS011;57434;42.794;23.302;2024-01-15T05:07:55;89.82;;;35.25;;
70071;SDS011;57434;42.794;23.302;2024-01-15T05:08:57;79.88;;;36.97;;
70071;SDS011;57434;42.794;23.302;2024-01-15T05:09:59;81.15;;;37.25;;
70071;SDS011;57434;42.794;23.302;2024-01-15T05:11:00;82.30;;;38.13;;
70071;SDS011;57434;42.794;23.302;2024-01-15T05:12:02;83.15;;;37.20;;
70071;SDS011;57434;42.794;23.302;2024-01-15T05:13:04;93.20;;;38.25;;
70071;SDS011;57434;42.794;23.302;2024-01-15T05:14:05;86.35;;;39.72;;
70071;SDS011;57434;42.794;23.302;2024-01-15T05:15:07;83.53;;;36.42;;
70071;SDS011;57434;42.794;23.302;2024-01-15T05:16:09;88.85;;;39.20;;
70071;SDS011;57434;42.794;23.302;2024-01-15T05:17:10;84.43;;;39.93;;
70071;SDS011;57434;42.794;23.302;2024-01-15T05:18:12;99.63;;;39.65;;
70071;SDS011;57434;42.794;23.302;2024-01-15T05:19:14;98.30;;;39.92;;
70071;SDS011;57434;42.794;23.302;2024-01-15T05:20:16;100.13;;;41.75;;
70071;SDS011;57434;42.794;23.302;2024-01-15T05:21:17;92.80;;;38.08;;
70071;SDS011;57434;42.794;23.302;2024-01-15T05:22:19;91.32;;;40.10;;
70071;SDS011;57434;42.794;23.302;2024-01-15T05:23:21;93.45;;;37.67;;
70071;SDS011;57434;42.794;23.302;2024-01-15T05:24:22;87.43;;;35.58;;
70071;SDS011;57434;42.794;23.302;2024-01-15T05:25:24;85.40;;;36.45;;
70071;SDS011;57434;42.794;23.302;2024-01-15T05:26:25;80.15;;;36.00;;
70071;SDS011;57434;42.794;23.302;2024-01-15T05:27:27;80.00;;;36.80;;
70071;SDS011;57434;42.794;23.302;2024-01-15T05:28:29;86.05;;;35.38;;
70071;SDS011;57434;42.794;23.302;2024-01-15T05:29:30;73.28;;;32.92;;
70071;SDS011;57434;42.794;23.302;2024-01-15T05:30:32;73.55;;;33.38;;
70071;SDS011;57434;42.794;23.302;2024-01-15T05:31:33;76.80;;;32.13;;
70071;SDS011;57434;42.794;23.302;2024-01-15T05:32:37;65.80;;;30.98;;
70071;SDS011;57434;42.794;23.302;2024-01-15T05:33:38;68.28;;;28.58;;
70071;SDS011;57434;42.794;23.302;2024-01-15T05:34:40;67.60;;;30.45;;
70071;SDS011;57434;42.794;23.302;2024-01-15T05:35:42;66.15;;;30.25;;
70071;SDS011;57434;42.794;23.302;2024-01-15T05:36:44;63.53;;;29.10;;
70071;SDS011;57434;42.794;23.302;2024-01-15T05:37:45;60.17;;;26.90;;
70071;SDS011;57434;42.794;23.302;2024-01-15T05:38:47;58.38;;;26.58;;
70071;SDS011;57434;42.794;23.302;2024-01-15T05:39:49;60.17;;;27.77;;
70071;SDS011;57434;42.794;23.302;2024-01-15T05:40:50;63.45;;;28.20;;
70071;SDS011;57434;42.794;23.302;2024-01-15T05:41:52;64.43;;;27.42;;
70071;SDS011;57434;42.794;23.302;2024-01-15T05:42:53;58.20;;;24.10;;
70071;SDS011;57434;42.794;23.302;2024-01-15T05:43:55;57.63;;;25.23;;
70071;SDS011;57434;42.794;23.302;2024-01-15T05:44:57;58.45;;;24.50;;
70071;SDS011;57434;42.794;23.302;2024-01-15T05:45:59;54.00;;;24.33;;
70071;SDS011;57434;42.794;23.302;2024-01-15T05:47:01;61.78;;;25.75;;
70071;SDS011;57434;42.794;23.302;2024-01-15T05:48:03;56.47;;;26.63;;
70071;SDS011;57434;42.794;23.302;2024-01-15T05:49:04;58.45;;;24.60;;
70071;SDS011;57434;42.794;23.302;2024-01-15T05:50:06;51.72;;;25.55;;
70071;SDS011;57434;42.794;23.302;2024-01-15T05:51:08;69.80;;;27.17;;
70071;SDS011;57434;42.794;23.302;2024-01-15T05:52:11;61.35;;;24.75;;
70071;SDS011;57434;42.794;23.302;2024-01-15T05:53:13;57.85;;;23.80;;
70071;SDS011;57434;42.794;23.302;2024-01-15T05:54:15;57.85;;;27.45;;
70071;SDS011;57434;42.794;23.302;2024-01-15T05:55:16;53.90;;;25.80;;
70071;SDS011;57434;42.794;23.302;2024-01-15T05:56:18;61.88;;;26.77;;
70071;SDS011;57434;42.794;23.302;2024-01-15T05:57:20;101.32;;;50.17;;
70071;SDS011;57434;42.794;23.302;2024-01-15T05:58:22;59.27;;;29.77;;
70071;SDS011;57434;42.794;23.302;2024-01-15T05:59:24;65.05;;;27.80;;
70071;SDS011;57434;42.794;23.302;2024-01-15T06:00:25;85.82;;;34.30;;